Time;durP1;ratioP1;P1;durP2;ratioP2;P2;SDS_P1;SDS_P2;PMS_P1;PMS_P2;Temp;Humidity;BMP_temperature;BMP_pressure;BME280_temperature;BME280_humidity;BME280_pressure;Samples;Min_cycle;Max_cycle;Signal;HPM_P1;HPM_P2
2023/08/17 00:01:53;;;;;;;;;;;25.60;58.80;;;;;;5095146;28;19985;-58
2023/08/17 00:04:20;;;;;;;;;;;25.50;58.80;;;;;;5094972;28;19924;-58
2023/08/17 00:06:47;;;;;;;;;;;25.60;58.80;;;;;;5095076;28;20007;-58
2023/08/17 00:09:14;;;;;;;;;;;25.50;58.80;;;;;;5094772;28;20277;-58
2023/08/17 00:11:41;;;;;;;;;;;25.50;58.80;;;;;;5094791;28;19965;-58
2023/08/17 00:14:10;;;;;;;;;;;25.50;58.80;;;;;;5094930;28;19969;-58
2023/08/17 00:16:36;;;;;;;;;;;25.50;58.80;;;;;;5094868;28;20372;-58
2023/08/17 00:19:03;;;;;;;;;;;25.50;58.80;;;;;;5095066;28;19924;-58
2023/08/17 00:21:30;;;;;;;;;;;25.50;58.80;;;;;;5094964;28;19925;-58
2023/08/17 00:23:57;;;;;;;;;;;25.50;58.80;;;;;;5093053;28;20045;-57
2023/08/17 00:26:25;;;;;;;;;;;25.50;58.80;;;;;;5094446;28;19924;-58
2023/08/17 00:28:52;;;;;;;;;;;25.50;58.80;;;;;;5094936;28;20386;-58
2023/08/17 00:31:19;;;;;;;;;;;25.50;58.80;;;;;;5095067;28;19924;-58
2023/08/17 00:33:46;;;;;;;;;;;25.50;58.80;;;;;;5094110;28;19931;-58
2023/08/17 00:36:13;;;;;;;;;;;25.50;58.80;;;;;;5094207;28;19958;-58
2023/08/17 00:38:40;;;;;;;;;;;25.40;58.80;;;;;;5093178;28;19974;-59
2023/08/17 00:41:07;;;;;;;;;;;25.50;58.90;;;;;;5094354;28;19924;-58
2023/08/17 00:43:34;;;;;;;;;;;25.40;58.80;;;;;;5094003;28;19924;-58
2023/08/17 00:46:02;;;;;;;;;;;25.50;58.90;;;;;;5094422;28;19990;-58
2023/08/17 00:48:29;;;;;;;;;;;25.50;58.90;;;;;;5094242;28;20023;-60
2023/08/17 00:50:57;;;;;;;;;;;25.40;58.80;;;;;;5094314;28;19924;-58
2023/08/17 00:53:26;;;;;;;;;;;25.50;58.90;;;;;;5094412;28;19973;-58
2023/08/17 00:55:53;;;;;;;;;;;25.40;58.90;;;;;;5094558;28;19924;-58
2023/08/17 00:58:21;;;;;;;;;;;25.40;58.90;;;;;;5093825;28;20362;-58
2023/08/17 01:00:48;;;;;;;;;;;25.40;58.80;;;;;;5093716;28;19928;-58
2023/08/17 01:03:17;;;;;;;;;;;25.40;58.80;;;;;;5093467;28;19928;-58
2023/08/17 01:05:44;;;;;;;;;;;25.40;58.80;;;;;;5093771;28;19924;-58
2023/08/17 01:08:11;;;;;;;;;;;25.40;58.90;;;;;;5093342;28;19928;-58
2023/08/17 01:10:51;;;;;;;;;;;25.40;58.90;;;;;;5094060;28;19932;-58
2023/08/17 01:13:20;;;;;;;;;;;25.40;58.90;;;;;;5092453;28;19947;-57
2023/08/17 01:15:50;;;;;;;;;;;25.40;58.90;;;;;;5093710;28;19928;-58
2023/08/17 01:18:22;;;;;;;;;;;25.40;58.90;;;;;;5093772;28;20466;-57
2023/08/17 01:20:50;;;;;;;;;;;25.40;58.90;;;;;;5092880;28;20367;-57
2023/08/17 01:23:17;;;;;;;;;;;25.40;58.80;;;;;;5093441;28;19928;-57
2023/08/17 01:25:44;;;;;;;;;;;25.40;58.90;;;;;;5093586;28;19977;-58
2023/08/17 01:28:11;;;;;;;;;;;25.40;58.80;;;;;;5093364;28;19977;-58
2023/08/17 01:30:46;;;;;;;;;;;25.40;58.80;;;;;;5093751;28;20391;-58
2023/08/17 01:33:17;;;;;;;;;;;25.40;58.80;;;;;;5093269;28;19931;-58
2023/08/17 01:35:48;;;;;;;;;;;25.40;58.80;;;;;;5093859;28;19967;-58
2023/08/17 01:38:17;;;;;;;;;;;25.40;58.80;;;;;;5093286;28;19931;-57
2023/08/17 01:40:49;;;;;;;;;;;25.40;58.70;;;;;;5093536;28;19977;-58
2023/08/17 01:43:17;;;;;;;;;;;25.40;58.80;;;;;;5093520;28;20322;-58
2023/08/17 01:45:44;;;;;;;;;;;25.40;58.70;;;;;;5093659;28;19985;-58
2023/08/17 01:48:11;;;;;;;;;;;25.50;58.80;;;;;;5093222;28;19958;-58
2023/08/17 01:50:38;;;;;;;;;;;25.50;58.70;;;;;;5093450;28;19955;-58
2023/08/17 01:53:05;;;;;;;;;;;25.50;58.80;;;;;;5093002;28;19924;-58
2023/08/17 01:55:32;;;;;;;;;;;25.50;58.70;;;;;;5097037;28;19985;-57
2023/08/17 01:57:59;;;;;;;;;;;25.50;58.70;;;;;;5097940;28;20257;-58
2023/08/17 02:00:26;;;;;;;;;;;25.50;58.70;;;;;;5097675;28;19977;-58
2023/08/17 02:02:53;;;;;;;;;;;25.50;58.70;;;;;;5097301;28;20333;-58
2023/08/17 02:05:20;;;;;;;;;;;25.50;58.70;;;;;;5096917;28;19939;-58
2023/08/17 02:07:47;;;;;;;;;;;25.50;58.70;;;;;;5097522;28;19973;-58
2023/08/17 02:10:13;;;;;;;;;;;25.40;58.60;;;;;;5097337;28;19928;-58
2023/08/17 02:12:41;;;;;;;;;;;25.40;58.60;;;;;;5095979;28;19955;-58
2023/08/17 02:15:08;;;;;;;;;;;25.40;58.60;;;;;;5097177;28;19970;-58
2023/08/17 02:17:35;;;;;;;;;;;25.40;58.60;;;;;;5096895;28;20335;-58
2023/08/17 02:20:03;;;;;;;;;;;25.40;58.70;;;;;;5096715;28;19932;-58
2023/08/17 02:22:30;;;;;;;;;;;25.40;58.70;;;;;;5096635;28;19978;-58
2023/08/17 02:24:57;;;;;;;;;;;25.40;58.70;;;;;;5084488;28;20291;-58
2023/08/17 02:27:24;;;;;;;;;;;25.40;58.70;;;;;;5085059;28;19940;-58
2023/08/17 02:29:52;;;;;;;;;;;25.40;58.70;;;;;;5086589;28;19977;-58
2023/08/17 02:32:19;;;;;;;;;;;25.40;58.80;;;;;;5081340;28;19924;-58
2023/08/17 02:34:46;;;;;;;;;;;25.40;58.80;;;;;;5077424;28;19924;-58
2023/08/17 02:37:13;;;;;;;;;;;25.40;58.80;;;;;;5083663;28;19924;-58
2023/08/17 02:39:40;;;;;;;;;;;25.40;58.80;;;;;;5095776;28;19932;-58
2023/08/17 02:42:07;;;;;;;;;;;25.40;58.80;;;;;;5096836;28;19931;-57
2023/08/17 02:44:34;;;;;;;;;;;25.40;58.80;;;;;;5095546;28;20052;-58
2023/08/17 02:47:01;;;;;;;;;;;25.30;58.80;;;;;;5096502;28;19924;-58
2023/08/17 02:49:28;;;;;;;;;;;25.40;58.80;;;;;;5096872;28;19928;-58
2023/08/17 02:51:55;;;;;;;;;;;25.40;58.80;;;;;;5096612;28;19924;-58
2023/08/17 02:54:22;;;;;;;;;;;25.40;58.80;;;;;;5096095;28;19928;-58
2023/08/17 02:56:49;;;;;;;;;;;25.40;58.80;;;;;;5096191;28;19924;-58
2023/08/17 02:59:16;;;;;;;;;;;25.40;58.80;;;;;;5095907;28;19977;-58
2023/08/17 03:01:44;;;;;;;;;;;25.30;58.80;;;;;;5096408;28;19928;-58
2023/08/17 03:04:11;;;;;;;;;;;25.30;58.70;;;;;;5095234;28;19928;-58
2023/08/17 03:06:38;;;;;;;;;;;25.30;58.80;;;;;;5096590;28;20003;-58
2023/08/17 03:09:05;;;;;;;;;;;25.30;58.70;;;;;;5096296;28;19950;-59
2023/08/17 03:11:32;;;;;;;;;;;25.30;58.80;;;;;;5094634;28;19988;-58
2023/08/17 03:14:01;;;;;;;;;;;25.30;58.80;;;;;;5094362;28;21288;-58
2023/08/17 03:16:30;;;;;;;;;;;25.30;58.80;;;;;;5096416;28;20291;-58
2023/08/17 03:18:58;;;;;;;;;;;25.30;58.80;;;;;;5095847;28;20375;-58
2023/08/17 03:21:25;;;;;;;;;;;25.30;58.80;;;;;;5096227;28;19924;-58
2023/08/17 03:23:52;;;;;;;;;;;25.30;58.80;;;;;;5095751;28;20326;-58
2023/08/17 03:26:19;;;;;;;;;;;25.30;58.80;;;;;;5095569;28;20023;-58
2023/08/17 03:28:46;;;;;;;;;;;25.30;58.80;;;;;;5092597;28;19984;-58
2023/08/17 03:31:13;;;;;;;;;;;25.30;58.80;;;;;;5074779;28;19932;-58
2023/08/17 03:33:40;;;;;;;;;;;25.30;58.80;;;;;;5075230;28;19958;-59
2023/08/17 03:36:07;;;;;;;;;;;25.30;58.80;;;;;;5088028;28;19923;-59
2023/08/17 03:38:34;;;;;;;;;;;25.30;58.80;;;;;;5095470;28;20451;-58
2023/08/17 03:41:01;;;;;;;;;;;25.30;58.80;;;;;;5095830;28;19924;-58
2023/08/17 03:43:28;;;;;;;;;;;25.30;58.80;;;;;;5095580;28;19969;-57
2023/08/17 03:45:55;;;;;;;;;;;25.30;59.30;;;;;;5094954;28;20372;-57
2023/08/17 03:48:22;;;;;;;;;;;25.30;58.80;;;;;;5095362;28;19935;-58
2023/08/17 03:50:54;;;;;;;;;;;25.30;58.80;;;;;;5094271;28;19924;-58
2023/08/17 03:53:21;;;;;;;;;;;25.30;58.70;;;;;;5095102;28;19954;-58
2023/08/17 03:55:49;;;;;;;;;;;25.30;58.70;;;;;;5095482;28;20005;-58
2023/08/17 03:58:17;;;;;;;;;;;25.30;58.70;;;;;;5087331;28;19928;-58
2023/08/17 04:00:51;;;;;;;;;;;25.30;58.70;;;;;;5088339;28;19935;-58
2023/08/17 04:03:19;;;;;;;;;;;25.30;58.60;;;;;;5074015;28;19970;-58
2023/08/17 04:05:45;;;;;;;;;;;25.30;58.60;;;;;;5074252;28;19924;-58
2023/08/17 04:08:12;;;;;;;;;;;25.40;58.60;;;;;;5084696;28;20005;-58
2023/08/17 04:10:40;;;;;;;;;;;25.40;58.60;;;;;;5091586;28;19931;-58
2023/08/17 04:13:07;;;;;;;;;;;25.40;58.60;;;;;;5074722;28;20354;-58
2023/08/17 04:15:33;;;;;;;;;;;25.40;58.50;;;;;;5073391;28;19929;-58
2023/08/17 04:18:00;;;;;;;;;;;25.40;58.40;;;;;;5073771;28;20362;-58
2023/08/17 04:20:28;;;;;;;;;;;25.40;58.40;;;;;;5074472;28;19924;-58
2023/08/17 04:22:55;;;;;;;;;;;25.40;58.30;;;;;;5083177;28;19928;-57
2023/08/17 04:25:22;;;;;;;;;;;25.40;58.30;;;;;;5089216;28;19924;-58
2023/08/17 04:27:48;;;;;;;;;;;25.40;58.20;;;;;;5085658;28;20165;-58
2023/08/17 04:30:15;;;;;;;;;;;25.50;58.30;;;;;;5083535;28;20290;-59
2023/08/17 04:32:42;;;;;;;;;;;25.50;58.20;;;;;;5081208;28;20046;-58
2023/08/17 04:35:10;;;;;;;;;;;25.50;58.10;;;;;;5085043;28;20013;-58
2023/08/17 04:37:37;;;;;;;;;;;25.40;58.10;;;;;;5083603;28;19928;-57
2023/08/17 04:40:05;;;;;;;;;;;25.40;58.20;;;;;;5078444;28;19924;-58
2023/08/17 04:42:32;;;;;;;;;;;25.30;58.30;;;;;;5082831;28;20257;-58
2023/08/17 04:44:59;;;;;;;;;;;25.10;58.50;;;;;;5083750;28;20393;-58
2023/08/17 04:47:26;;;;;;;;;;;24.90;57.40;;;;;;5081685;28;19924;-58
2023/08/17 04:49:53;;;;;;;;;;;24.70;55.40;;;;;;5081881;28;19925;-58
2023/08/17 04:52:20;;;;;;;;;;;24.40;53.90;;;;;;5087486;28;19989;-58
2023/08/17 04:54:47;;;;;;;;;;;24.10;52.60;;;;;;5072734;28;20469;-58
2023/08/17 04:57:14;;;;;;;;;;;23.80;51.60;;;;;;5072734;28;19928;-58
2023/08/17 04:59:41;;;;;;;;;;;23.50;50.90;;;;;;5072404;28;19972;-57
2023/08/17 05:02:08;;;;;;;;;;;23.20;51.50;;;;;;5071890;28;19928;-57
2023/08/17 05:04:35;;;;;;;;;;;22.90;49.90;;;;;;5079575;28;19928;-58
2023/08/17 05:07:02;;;;;;;;;;;22.60;49.80;;;;;;5083470;28;19928;-57
2023/08/17 05:09:30;;;;;;;;;;;22.40;49.60;;;;;;5085621;28;19954;-58
2023/08/17 05:11:57;;;;;;;;;;;22.10;49.50;;;;;;5083053;28;19931;-58
2023/08/17 05:14:24;;;;;;;;;;;21.80;49.70;;;;;;5083187;28;19924;-59
2023/08/17 05:16:51;;;;;;;;;;;21.60;49.80;;;;;;5080798;28;19924;-59
2023/08/17 05:19:18;;;;;;;;;;;21.30;51.00;;;;;;5080376;28;20334;-58
2023/08/17 05:21:45;;;;;;;;;;;21.10;51.40;;;;;;5082557;28;19924;-59
2023/08/17 05:24:12;;;;;;;;;;;21.00;51.90;;;;;;5078412;28;19990;-58
2023/08/17 05:26:39;;;;;;;;;;;20.80;52.40;;;;;;5083509;28;20397;-58
2023/08/17 05:29:06;;;;;;;;;;;20.60;53.20;;;;;;5080310;28;19954;-57
2023/08/17 05:31:33;;;;;;;;;;;20.50;53.40;;;;;;5087687;28;19994;-57
2023/08/17 05:34:00;;;;;;;;;;;20.40;54.10;;;;;;5072597;28;19970;-58
2023/08/17 05:36:27;;;;;;;;;;;20.30;54.90;;;;;;5070588;28;20019;-59
2023/08/17 05:38:55;;;;;;;;;;;20.20;54.40;;;;;;5076098;28;19974;-58
2023/08/17 05:41:22;;;;;;;;;;;20.20;55.00;;;;;;5075056;28;20265;-58
2023/08/17 05:43:49;;;;;;;;;;;20.10;54.90;;;;;;5074518;28;20341;-58
2023/08/17 05:46:16;;;;;;;;;;;20.10;55.30;;;;;;5073398;28;20334;-57
2023/08/17 05:48:43;;;;;;;;;;;20.10;55.90;;;;;;5076461;28;20299;-58
2023/08/17 05:51:10;;;;;;;;;;;20.00;55.40;;;;;;5080494;28;19932;-58
2023/08/17 05:53:37;;;;;;;;;;;20.00;55.80;;;;;;5077973;28;19970;-58
2023/08/17 05:56:04;;;;;;;;;;;19.90;56.10;;;;;;5076163;28;20269;-59
2023/08/17 05:58:31;;;;;;;;;;;19.90;54.90;;;;;;5073550;28;19932;-58
2023/08/17 06:01:06;;;;;;;;;;;19.90;54.90;;;;;;5073770;28;20367;-57
2023/08/17 06:03:33;;;;;;;;;;;19.80;54.30;;;;;;5074577;28;19928;-58
2023/08/17 06:06:00;;;;;;;;;;;19.80;56.70;;;;;;5074453;28;19980;-58
2023/08/17 06:08:27;;;;;;;;;;;19.80;56.40;;;;;;5082047;28;19944;-57
2023/08/17 06:10:54;;;;;;;;;;;19.70;59.90;;;;;;5083207;28;19968;-58
2023/08/17 06:13:22;;;;;;;;;;;19.60;59.20;;;;;;5072667;28;19979;-57
2023/08/17 06:15:49;;;;;;;;;;;19.60;61.00;;;;;;5074957;28;19928;-57
2023/08/17 06:18:16;;;;;;;;;;;19.50;58.60;;;;;;5070837;28;19979;-58
2023/08/17 06:20:46;;;;;;;;;;;19.50;57.10;;;;;;5068545;28;19932;-59
2023/08/17 06:23:13;;;;;;;;;;;19.50;58.20;;;;;;5075372;28;19924;-59
2023/08/17 06:25:41;;;;;;;;;;;19.50;61.40;;;;;;5077533;28;20338;-59
2023/08/17 06:28:08;;;;;;;;;;;19.50;61.10;;;;;;5074445;28;19934;-59
2023/08/17 06:30:35;;;;;;;;;;;19.50;62.20;;;;;;5075868;28;19978;-58
2023/08/17 06:33:02;;;;;;;;;;;19.50;61.40;;;;;;5073397;28;19925;-58
2023/08/17 06:35:29;;;;;;;;;;;19.50;61.80;;;;;;5077308;28;19932;-60
2023/08/17 06:37:57;;;;;;;;;;;19.50;63.20;;;;;;5075693;28;19932;-58
2023/08/17 06:40:25;;;;;;;;;;;19.40;61.60;;;;;;5073149;28;20027;-57
2023/08/17 06:42:54;;;;;;;;;;;19.40;60.90;;;;;;5081869;28;19930;-58
2023/08/17 06:45:22;;;;;;;;;;;19.40;59.60;;;;;;5084635;28;20295;-57
2023/08/17 06:47:49;;;;;;;;;;;19.40;62.30;;;;;;5077940;28;19932;-57
2023/08/17 06:50:17;;;;;;;;;;;19.40;57.50;;;;;;5073557;28;19967;-57
2023/08/17 06:52:44;;;;;;;;;;;19.40;62.10;;;;;;5080253;28;20261;-57
2023/08/17 06:55:11;;;;;;;;;;;19.40;63.50;;;;;;5083929;28;19935;-57
2023/08/17 06:57:38;;;;;;;;;;;19.40;60.10;;;;;;5086706;28;20015;-59
2023/08/17 07:00:06;;;;;;;;;;;19.30;63.10;;;;;;5087900;28;19927;-57
2023/08/17 07:02:34;;;;;;;;;;;19.30;58.30;;;;;;5082223;28;20360;-58
2023/08/17 07:05:18;;;;;;;;;;;19.40;59.00;;;;;;5082477;28;19932;-58
2023/08/17 07:07:48;;;;;;;;;;;19.40;64.50;;;;;;5079741;28;20299;-58
2023/08/17 07:10:15;;;;;;;;;;;19.50;60.00;;;;;;5076356;28;19932;-58
2023/08/17 07:12:42;;;;;;;;;;;19.50;59.50;;;;;;5076019;28;19928;-65
2023/08/17 07:15:10;;;;;;;;;;;19.50;59.10;;;;;;5072980;28;19932;-59
2023/08/17 07:17:37;;;;;;;;;;;19.50;62.60;;;;;;5076588;28;19970;-59
2023/08/17 07:20:05;;;;;;;;;;;19.60;63.40;;;;;;5086681;28;19986;-59
2023/08/17 07:22:43;;;;;;;;;;;19.50;65.70;;;;;;5077234;28;19924;-59
2023/08/17 07:25:10;;;;;;;;;;;19.50;64.40;;;;;;5073710;28;19978;-59
2023/08/17 07:27:37;;;;;;;;;;;19.50;65.10;;;;;;5078409;28;20338;-59
2023/08/17 07:30:05;;;;;;;;;;;19.50;65.50;;;;;;5075177;28;19977;-59
2023/08/17 07:32:32;;;;;;;;;;;19.50;64.10;;;;;;5080902;28;19932;-59
2023/08/17 07:34:59;;;;;;;;;;;19.50;64.60;;;;;;5081665;28;19924;-59
2023/08/17 07:37:33;;;;;;;;;;;19.60;65.00;;;;;;5076066;28;19929;-58
2023/08/17 07:40:03;;;;;;;;;;;19.60;64.10;;;;;;5078251;28;20360;-58
2023/08/17 07:42:30;;;;;;;;;;;19.60;64.40;;;;;;5071473;28;19928;-59
2023/08/17 07:44:57;;;;;;;;;;;19.60;63.60;;;;;;5077567;28;19928;-59
2023/08/17 07:47:24;;;;;;;;;;;19.70;61.60;;;;;;5070815;28;19971;-59
2023/08/17 07:49:52;;;;;;;;;;;19.70;61.60;;;;;;5079500;28;19931;-60
2023/08/17 07:52:19;;;;;;;;;;;19.70;62.10;;;;;;5072938;28;19970;-59
2023/08/17 07:54:46;;;;;;;;;;;19.80;59.70;;;;;;5077359;28;19983;-59
2023/08/17 07:57:14;;;;;;;;;;;19.90;59.80;;;;;;5075130;28;19932;-59
2023/08/17 07:59:41;;;;;;;;;;;19.90;59.60;;;;;;5076424;28;19939;-59
2023/08/17 08:02:08;;;;;;;;;;;20.00;59.60;;;;;;5075093;28;19925;-60
2023/08/17 08:04:35;;;;;;;;;;;20.00;59.70;;;;;;5076686;28;19931;-54
2023/08/17 08:07:02;;;;;;;;;;;20.00;64.50;;;;;;5072807;28;19974;-60
2023/08/17 08:09:29;;;;;;;;;;;20.00;61.50;;;;;;5070884;28;20010;-60
2023/08/17 08:11:56;;;;;;;;;;;20.10;60.20;;;;;;5073988;28;19978;-60
2023/08/17 08:14:23;;;;;;;;;;;20.10;63.70;;;;;;5071510;28;19925;-59
2023/08/17 08:16:50;;;;;;;;;;;20.10;65.60;;;;;;5074004;28;20330;-59
2023/08/17 08:19:18;;;;;;;;;;;20.10;63.00;;;;;;5079030;28;19932;-59
2023/08/17 08:21:45;;;;;;;;;;;20.20;64.50;;;;;;5075973;28;19949;-59
2023/08/17 08:24:12;;;;;;;;;;;20.20;62.60;;;;;;5077792;28;20288;-59
2023/08/17 08:26:54;;;;;;;;;;;20.30;63.00;;;;;;5071354;28;20350;-58
2023/08/17 08:29:22;;;;;;;;;;;20.20;62.20;;;;;;5074339;28;19928;-55
2023/08/17 08:31:49;;;;;;;;;;;20.30;61.10;;;;;;5076631;28;19932;-59
2023/08/17 08:34:16;;;;;;;;;;;20.30;61.40;;;;;;5074878;28;19939;-56
2023/08/17 08:36:43;;;;;;;;;;;20.40;63.10;;;;;;5072012;28;20508;-58
2023/08/17 08:39:12;;;;;;;;;;;20.40;60.50;;;;;;5071861;28;19929;-58
2023/08/17 08:41:40;;;;;;;;;;;20.40;60.00;;;;;;5077695;28;20466;-58
2023/08/17 08:44:07;;;;;;;;;;;20.50;60.20;;;;;;5069952;28;19933;-58
2023/08/17 08:46:34;;;;;;;;;;;20.50;60.00;;;;;;5072582;28;19932;-58
2023/08/17 08:49:03;;;;;;;;;;;20.60;59.70;;;;;;5075899;28;19932;-58
2023/08/17 08:51:33;;;;;;;;;;;20.60;59.80;;;;;;5077997;28;19924;-58
2023/08/17 08:54:02;;;;;;;;;;;20.60;59.50;;;;;;5078863;28;19925;-58
2023/08/17 08:56:33;;;;;;;;;;;20.70;59.90;;;;;;5074637;28;19933;-58
2023/08/17 08:59:01;;;;;;;;;;;20.70;59.40;;;;;;5073751;28;20376;-56
2023/08/17 09:01:30;;;;;;;;;;;20.70;59.30;;;;;;5078010;28;19969;-56
2023/08/17 09:04:02;;;;;;;;;;;20.80;60.40;;;;;;5071876;28;20010;-54
2023/08/17 09:06:30;;;;;;;;;;;20.80;61.00;;;;;;5074186;28;19936;-56
2023/08/17 09:08:58;;;;;;;;;;;20.80;62.10;;;;;;5078299;28;19936;-59
2023/08/17 09:11:25;;;;;;;;;;;20.90;62.00;;;;;;5076073;28;19924;-58
2023/08/17 09:13:54;;;;;;;;;;;20.80;61.50;;;;;;5069157;28;20388;-57
2023/08/17 09:16:21;;;;;;;;;;;20.90;62.20;;;;;;5075531;28;20001;-58
2023/08/17 09:18:52;;;;;;;;;;;20.90;61.00;;;;;;5079599;28;19928;-58
2023/08/17 09:21:21;;;;;;;;;;;21.00;62.30;;;;;;5078887;28;19932;-58
2023/08/17 09:23:55;;;;;;;;;;;21.00;61.00;;;;;;5078373;28;19931;-57
2023/08/17 09:26:30;;;;;;;;;;;21.00;62.40;;;;;;5075912;28;19924;-58
2023/08/17 09:28:58;;;;;;;;;;;21.00;63.00;;;;;;5071066;28;19924;-58
2023/08/17 09:31:26;;;;;;;;;;;21.00;61.90;;;;;;5072045;28;19967;-57
2023/08/17 09:33:53;;;;;;;;;;;21.10;59.60;;;;;;5079379;28;20307;-58
2023/08/17 09:36:24;;;;;;;;;;;21.10;59.50;;;;;;5075629;28;19932;-58
2023/08/17 09:38:52;;;;;;;;;;;21.10;59.10;;;;;;5076627;28;19924;-58
2023/08/17 09:41:19;;;;;;;;;;;21.10;59.00;;;;;;5077281;28;19928;-58
2023/08/17 09:43:46;;;;;;;;;;;21.20;59.20;;;;;;5074408;28;19933;-58
2023/08/17 09:46:14;;;;;;;;;;;21.20;59.20;;;;;;5074809;28;20844;-58
2023/08/17 09:48:45;;;;;;;;;;;21.30;59.40;;;;;;5072676;28;20489;-58
2023/08/17 09:51:15;;;;;;;;;;;21.30;60.00;;;;;;5080503;28;19981;-58
2023/08/17 09:53:42;;;;;;;;;;;21.40;59.40;;;;;;5075425;28;20009;-58
2023/08/17 09:56:10;;;;;;;;;;;21.40;60.00;;;;;;5075708;28;19924;-58
2023/08/17 09:58:43;;;;;;;;;;;21.40;59.90;;;;;;5073742;28;19941;-58
2023/08/17 10:01:10;;;;;;;;;;;21.40;61.40;;;;;;5084638;28;19971;-58
2023/08/17 10:03:39;;;;;;;;;;;21.40;61.40;;;;;;5081957;28;19924;-58
2023/08/17 10:06:06;;;;;;;;;;;21.40;58.40;;;;;;5080520;28;19933;-56
2023/08/17 10:08:36;;;;;;;;;;;21.40;60.00;;;;;;5072933;28;19928;-58
2023/08/17 10:11:09;;;;;;;;;;;21.40;61.00;;;;;;5082769;28;19935;-58
2023/08/17 10:13:45;;;;;;;;;;;21.30;60.10;;;;;;5077382;28;19924;-58
2023/08/17 10:16:32;;;;;;;;;;;21.30;60.50;;;;;;5083546;28;20376;-56
2023/08/17 10:19:19;;;;;;;;;;;21.30;60.60;;;;;;5077568;28;20038;-55
2023/08/17 10:21:48;;;;;;;;;;;21.30;60.30;;;;;;5081376;28;19966;-57
2023/08/17 10:24:16;;;;;;;;;;;21.20;60.40;;;;;;5080516;28;19932;-58
2023/08/17 10:26:44;;;;;;;;;;;21.20;60.40;;;;;;5087126;28;20457;-56
2023/08/17 10:29:12;;;;;;;;;;;21.20;59.80;;;;;;5076533;28;19928;-56
2023/08/17 10:31:44;;;;;;;;;;;21.20;58.20;;;;;;5081041;28;19929;-57
2023/08/17 10:34:12;;;;;;;;;;;21.20;57.90;;;;;;5079711;28;19925;-57
2023/08/17 10:36:41;;;;;;;;;;;21.20;57.40;;;;;;5076922;28;19924;-58
2023/08/17 10:39:22;;;;;;;;;;;21.20;59.60;;;;;;5081226;28;20364;-57
2023/08/17 10:41:55;;;;;;;;;;;21.20;59.40;;;;;;5077708;28;19942;-57
2023/08/17 10:44:40;;;;;;;;;;;21.20;59.50;;;;;;5078365;28;19983;-56
2023/08/17 10:47:18;;;;;;;;;;;21.20;60.00;;;;;;5080489;28;20015;-56
2023/08/17 10:49:45;;;;;;;;;;;21.10;61.20;;;;;;5080196;28;19935;-57
2023/08/17 10:52:12;;;;;;;;;;;21.10;59.90;;;;;;5080506;28;19928;-56
2023/08/17 10:54:40;;;;;;;;;;;21.10;60.20;;;;;;5078551;28;19935;-54
2023/08/17 10:57:27;;;;;;;;;;;21.10;59.80;;;;;;5086473;28;19928;-56
2023/08/17 11:00:13;;;;;;;;;;;21.00;60.60;;;;;;5075579;28;19924;-57
2023/08/17 11:02:53;;;;;;;;;;;21.00;61.30;;;;;;5078595;28;19928;-57
2023/08/17 11:05:40;;;;;;;;;;;21.00;61.40;;;;;;5079218;28;19924;-59
2023/08/17 11:08:09;;;;;;;;;;;20.90;60.40;;;;;;5078703;28;20296;-57
2023/08/17 11:10:37;;;;;;;;;;;20.90;61.20;;;;;;5078981;28;19928;-58
2023/08/17 11:13:06;;;;;;;;;;;20.90;61.80;;;;;;5076831;28;19981;-58
2023/08/17 11:15:38;;;;;;;;;;;20.90;60.90;;;;;;5071720;28;19932;-58
2023/08/17 11:18:07;;;;;;;;;;;20.80;62.00;;;;;;5076492;28;20011;-58
2023/08/17 11:20:37;;;;;;;;;;;20.80;62.00;;;;;;5074591;28;19950;-58
2023/08/17 11:23:05;;;;;;;;;;;20.80;62.00;;;;;;5078198;28;20338;-58
2023/08/17 11:25:36;;;;;;;;;;;20.80;62.50;;;;;;5075574;28;19924;-59
2023/08/17 11:28:06;;;;;;;;;;;20.80;61.40;;;;;;5077978;28;19935;-57
2023/08/17 11:30:35;;;;;;;;;;;20.80;61.90;;;;;;5075687;28;19931;-57
2023/08/17 11:33:02;;;;;;;;;;;20.80;61.60;;;;;;5075117;28;20379;-58
2023/08/17 11:35:30;;;;;;;;;;;20.80;62.10;;;;;;5078363;28;19924;-58
2023/08/17 11:37:56;;;;;;;;;;;20.80;61.50;;;;;;5079473;28;19980;-59
2023/08/17 11:40:25;;;;;;;;;;;20.80;61.20;;;;;;5081789;28;20280;-57
2023/08/17 11:42:52;;;;;;;;;;;20.80;61.40;;;;;;5079990;28;20013;-60
2023/08/17 11:45:19;;;;;;;;;;;20.80;58.80;;;;;;5079608;28;19971;-59
2023/08/17 11:47:47;;;;;;;;;;;20.90;61.50;;;;;;5076796;28;19932;-59
2023/08/17 11:50:14;;;;;;;;;;;20.80;61.00;;;;;;5077915;28;20007;-59
2023/08/17 11:52:47;;;;;;;;;;;20.90;61.20;;;;;;5082143;28;19943;-59
2023/08/17 11:55:17;;;;;;;;;;;20.90;60.40;;;;;;5071551;28;19932;-59
2023/08/17 11:57:44;;;;;;;;;;;20.90;61.20;;;;;;5080006;28;20380;-60
2023/08/17 12:00:16;;;;;;;;;;;21.00;62.30;;;;;;5076891;28;20422;-61
2023/08/17 12:02:45;;;;;;;;;;;21.00;61.40;;;;;;5079765;28;19928;-60
2023/08/17 12:05:12;;;;;;;;;;;21.00;59.90;;;;;;5074454;28;19924;-58
2023/08/17 12:07:39;;;;;;;;;;;21.10;61.60;;;;;;5077496;28;19931;-59
2023/08/17 12:10:06;;;;;;;;;;;21.10;61.50;;;;;;5074292;28;19954;-59
2023/08/17 12:12:36;;;;;;;;;;;21.10;60.60;;;;;;5080881;28;19985;-60
2023/08/17 12:15:04;;;;;;;;;;;21.20;61.50;;;;;;5074291;28;19978;-58
2023/08/17 12:17:31;;;;;;;;;;;21.20;61.80;;;;;;5077279;28;19931;-61
2023/08/17 12:19:58;;;;;;;;;;;21.20;61.30;;;;;;5079500;28;19947;-60
2023/08/17 12:22:26;;;;;;;;;;;21.30;61.80;;;;;;5082721;28;19931;-58
2023/08/17 12:24:54;;;;;;;;;;;21.30;61.80;;;;;;5078532;28;20024;-58
2023/08/17 12:27:22;;;;;;;;;;;21.30;61.70;;;;;;5079944;28;19924;-60
2023/08/17 12:29:49;;;;;;;;;;;21.30;61.90;;;;;;5084029;28;20018;-60
2023/08/17 12:32:16;;;;;;;;;;;21.30;61.50;;;;;;5079207;28;19937;-59
2023/08/17 12:34:44;;;;;;;;;;;21.30;62.70;;;;;;5078761;28;19956;-60
2023/08/17 12:37:11;;;;;;;;;;;21.30;59.60;;;;;;5082427;28;19985;-59
2023/08/17 12:39:38;;;;;;;;;;;21.30;61.40;;;;;;5084001;28;19931;-59
2023/08/17 12:42:05;;;;;;;;;;;21.30;61.10;;;;;;5077956;28;20335;-59
2023/08/17 12:44:38;;;;;;;;;;;21.20;61.20;;;;;;5075946;28;19952;-59
2023/08/17 12:47:05;;;;;;;;;;;21.30;61.90;;;;;;5080728;28;19928;-59
2023/08/17 12:49:32;;;;;;;;;;;21.20;62.10;;;;;;5076657;28;20376;-60
2023/08/17 12:52:05;;;;;;;;;;;21.30;62.40;;;;;;5080157;28;19969;-60
2023/08/17 12:54:31;;;;;;;;;;;21.30;62.20;;;;;;5068866;28;19939;-59
2023/08/17 12:56:58;;;;;;;;;;;21.20;61.40;;;;;;5077168;28;19932;-59
2023/08/17 12:59:29;;;;;;;;;;;21.20;61.90;;;;;;5076267;28;19932;-59
2023/08/17 13:01:56;;;;;;;;;;;21.30;62.40;;;;;;5071250;28;19932;-60
2023/08/17 13:04:23;;;;;;;;;;;21.30;61.50;;;;;;5076915;28;19925;-60
2023/08/17 13:06:51;;;;;;;;;;;21.30;61.90;;;;;;5069388;28;20368;-59
2023/08/17 13:09:18;;;;;;;;;;;21.30;61.80;;;;;;5078078;28;19970;-60
2023/08/17 13:11:46;;;;;;;;;;;21.40;61.20;;;;;;5077632;28;20026;-60
2023/08/17 13:14:14;;;;;;;;;;;21.40;61.60;;;;;;5077857;28;19944;-60
2023/08/17 13:16:42;;;;;;;;;;;21.40;61.30;;;;;;5071350;28;19951;-60
2023/08/17 13:19:09;;;;;;;;;;;21.40;60.60;;;;;;5078217;28;20529;-59
2023/08/17 13:21:35;;;;;;;;;;;21.40;61.90;;;;;;5070492;28;20021;-60
2023/08/17 13:24:03;;;;;;;;;;;21.40;61.40;;;;;;5074807;28;20056;-59
2023/08/17 13:26:30;;;;;;;;;;;21.40;60.10;;;;;;5087211;28;19931;-59
2023/08/17 13:28:57;;;;;;;;;;;21.40;61.00;;;;;;5083510;28;19928;-59
2023/08/17 13:31:24;;;;;;;;;;;21.40;61.80;;;;;;5076362;28;19933;-59
2023/08/17 13:33:52;;;;;;;;;;;21.40;60.40;;;;;;5069681;28;19932;-59
2023/08/17 13:36:19;;;;;;;;;;;21.40;60.40;;;;;;5075541;28;20379;-60
2023/08/17 13:38:46;;;;;;;;;;;21.40;61.00;;;;;;5079020;28;20276;-59
2023/08/17 13:41:13;;;;;;;;;;;21.40;60.70;;;;;;5080189;28;19924;-59
2023/08/17 13:43:40;;;;;;;;;;;21.40;60.80;;;;;;5081197;28;19932;-59
2023/08/17 13:46:08;;;;;;;;;;;21.40;60.70;;;;;;5068936;28;19932;-59
2023/08/17 13:48:36;;;;;;;;;;;21.40;60.40;;;;;;5073513;28;19933;-59
2023/08/17 13:51:03;;;;;;;;;;;21.40;60.50;;;;;;5072986;28;19924;-60
2023/08/17 13:53:30;;;;;;;;;;;21.40;60.00;;;;;;5075201;28;20280;-60
2023/08/17 13:55:57;;;;;;;;;;;21.40;61.20;;;;;;5071538;28;19936;-60
2023/08/17 13:58:24;;;;;;;;;;;21.40;60.80;;;;;;5081761;28;19978;-60
2023/08/17 14:00:51;;;;;;;;;;;21.30;61.40;;;;;;5076332;28;19928;-59
2023/08/17 14:03:18;;;;;;;;;;;21.30;61.70;;;;;;5081626;28;19924;-60
2023/08/17 14:05:45;;;;;;;;;;;21.30;64.90;;;;;;5081975;28;19935;-60
2023/08/17 14:08:12;;;;;;;;;;;21.60;73.40;;;;;;5082269;28;20399;-60
2023/08/17 14:10:39;;;;;;;;;;;21.90;76.10;;;;;;5091183;28;19931;-60
2023/08/17 14:13:07;;;;;;;;;;;22.20;77.50;;;;;;5079681;28;20338;-58
2023/08/17 14:15:34;;;;;;;;;;;22.50;77.60;;;;;;5076740;28;20333;-60
2023/08/17 14:18:01;;;;;;;;;;;22.80;77.20;;;;;;5075178;28;20292;-60
2023/08/17 14:20:28;;;;;;;;;;;23.10;77.10;;;;;;5082182;28;20008;-59
2023/08/17 14:22:55;;;;;;;;;;;23.40;76.80;;;;;;5077634;28;19932;-58